sensor_id;sensor_type;location;lat;lon;timestamp;P1;durP1;ratioP1;P2;durP2;ratioP2
49764;SDS011;35657;51.204;-4.130;2023-03-08T00:01:43;5.70;;;2.47;;
49764;SDS011;35657;51.204;-4.130;2023-03-08T00:04:09;3.97;;;2.78;;
49764;SDS011;35657;51.204;-4.130;2023-03-08T00:06:35;6.40;;;3.20;;
49764;SDS011;35657;51.204;-4.130;2023-03-08T00:09:01;5.15;;;3.00;;
49764;SDS011;35657;51.204;-4.130;2023-03-08T00:11:27;5.15;;;3.40;;
49764;SDS011;35657;51.204;-4.130;2023-03-08T00:13:54;6.35;;;3.60;;
49764;SDS011;35657;51.204;-4.130;2023-03-08T00:16:19;4.90;;;3.30;;
49764;SDS011;35657;51.204;-4.130;2023-03-08T00:18:45;5.22;;;3.35;;
49764;SDS011;35657;51.204;-4.130;2023-03-08T00:21:12;7.25;;;4.32;;
49764;SDS011;35657;51.204;-4.130;2023-03-08T00:23:40;5.43;;;3.38;;
49764;SDS011;35657;51.204;-4.130;2023-03-08T00:26:07;7.32;;;4.32;;
49764;SDS011;35657;51.204;-4.130;2023-03-08T00:28:33;6.80;;;4.03;;
49764;SDS011;35657;51.204;-4.130;2023-03-08T00:31:03;7.88;;;4.85;;
49764;SDS011;35657;51.204;-4.130;2023-03-08T00:33:33;7.00;;;3.85;;
49764;SDS011;35657;51.204;-4.130;2023-03-08T00:36:01;8.55;;;6.03;;
49764;SDS011;35657;51.204;-4.130;2023-03-08T00:38:30;6.75;;;4.90;;
49764;SDS011;35657;51.204;-4.130;2023-03-08T00:40:58;8.27;;;6.72;;
49764;SDS011;35657;51.204;-4.130;2023-03-08T00:43:23;8.95;;;5.70;;
49764;SDS011;35657;51.204;-4.130;2023-03-08T00:45:50;8.52;;;6.90;;
49764;SDS011;35657;51.204;-4.130;2023-03-08T00:48:15;7.43;;;5.25;;
49764;SDS011;35657;51.204;-4.130;2023-03-08T00:50:41;9.82;;;5.95;;
49764;SDS011;35657;51.204;-4.130;2023-03-08T00:53:07;11.57;;;6.90;;
49764;SDS011;35657;51.204;-4.130;2023-03-08T00:55:33;12.07;;;5.90;;
49764;SDS011;35657;51.204;-4.130;2023-03-08T00:57:59;10.45;;;6.38;;
49764;SDS011;35657;51.204;-4.130;2023-03-08T01:00:25;9.85;;;6.05;;
49764;SDS011;35657;51.204;-4.130;2023-03-08T01:02:51;9.63;;;6.50;;
49764;SDS011;35657;51.204;-4.130;2023-03-08T01:05:17;9.15;;;5.70;;
49764;SDS011;35657;51.204;-4.130;2023-03-08T01:07:42;10.77;;;8.75;;
49764;SDS011;35657;51.204;-4.130;2023-03-08T01:10:08;9.85;;;6.80;;
49764;SDS011;35657;51.204;-4.130;2023-03-08T01:12:35;10.55;;;6.97;;
49764;SDS011;35657;51.204;-4.130;2023-03-08T01:15:01;9.35;;;6.15;;
49764;SDS011;35657;51.204;-4.130;2023-03-08T01:17:28;9.27;;;5.88;;
49764;SDS011;35657;51.204;-4.130;2023-03-08T01:19:53;12.23;;;6.20;;
49764;SDS011;35657;51.204;-4.130;2023-03-08T01:22:19;10.02;;;7.25;;
49764;SDS011;35657;51.204;-4.130;2023-03-08T01:24:45;8.48;;;6.00;;
49764;SDS011;35657;51.204;-4.130;2023-03-08T01:27:12;10.07;;;6.47;;
49764;SDS011;35657;51.204;-4.130;2023-03-08T01:29:39;10.27;;;6.80;;
49764;SDS011;35657;51.204;-4.130;2023-03-08T01:32:06;11.90;;;6.70;;
49764;SDS011;35657;51.204;-4.130;2023-03-08T01:34:32;8.45;;;4.82;;
49764;SDS011;35657;51.204;-4.130;2023-03-08T01:36:57;10.00;;;6.78;;
49764;SDS011;35657;51.204;-4.130;2023-03-08T01:39:23;8.35;;;5.88;;
49764;SDS011;35657;51.204;-4.130;2023-03-08T01:41:49;7.93;;;5.55;;
49764;SDS011;35657;51.204;-4.130;2023-03-08T01:44:15;9.57;;;5.28;;
49764;SDS011;35657;51.204;-4.130;2023-03-08T01:46:43;8.93;;;5.40;;
49764;SDS011;35657;51.204;-4.130;2023-03-08T01:54:29;7.00;;;4.03;;
49764;SDS011;35657;51.204;-4.130;2023-03-08T01:56:59;6.65;;;4.28;;
49764;SDS011;35657;51.204;-4.130;2023-03-08T01:59:28;6.78;;;4.85;;
49764;SDS011;35657;51.204;-4.130;2023-03-08T02:01:56;8.15;;;5.97;;
49764;SDS011;35657;51.204;-4.130;2023-03-08T02:04:23;9.15;;;5.30;;
49764;SDS011;35657;51.204;-4.130;2023-03-08T02:06:50;11.25;;;6.10;;
49764;SDS011;35657;51.204;-4.130;2023-03-08T02:09:16;7.15;;;6.05;;
49764;SDS011;35657;51.204;-4.130;2023-03-08T02:11:42;9.98;;;7.60;;
49764;SDS011;35657;51.204;-4.130;2023-03-08T02:14:08;9.45;;;6.80;;
49764;SDS011;35657;51.204;-4.130;2023-03-08T02:16:34;11.50;;;7.38;;
49764;SDS011;35657;51.204;-4.130;2023-03-08T02:19:01;8.65;;;4.53;;
49764;SDS011;35657;51.204;-4.130;2023-03-08T02:21:30;11.15;;;6.95;;
49764;SDS011;35657;51.204;-4.130;2023-03-08T02:24:06;12.15;;;6.68;;
49764;SDS011;35657;51.204;-4.130;2023-03-08T02:26:45;9.15;;;6.15;;
49764;SDS011;35657;51.204;-4.130;2023-03-08T02:29:11;7.35;;;5.40;;
49764;SDS011;35657;51.204;-4.130;2023-03-08T02:31:37;10.63;;;6.57;;
49764;SDS011;35657;51.204;-4.130;2023-03-08T02:34:03;11.07;;;5.55;;
49764;SDS011;35657;51.204;-4.130;2023-03-08T02:36:28;7.38;;;5.68;;
49764;SDS011;35657;51.204;-4.130;2023-03-08T02:38:54;8.93;;;4.47;;
49764;SDS011;35657;51.204;-4.130;2023-03-08T02:41:20;6.55;;;3.00;;
49764;SDS011;35657;51.204;-4.130;2023-03-08T02:43:45;4.38;;;3.20;;
49764;SDS011;35657;51.204;-4.130;2023-03-08T02:46:11;5.43;;;3.72;;
49764;SDS011;35657;51.204;-4.130;2023-03-08T02:48:38;3.67;;;2.70;;
49764;SDS011;35657;51.204;-4.130;2023-03-08T02:51:04;5.18;;;3.28;;
49764;SDS011;35657;51.204;-4.130;2023-03-08T02:53:29;3.58;;;2.40;;
49764;SDS011;35657;51.204;-4.130;2023-03-08T02:55:55;4.13;;;2.40;;
49764;SDS011;35657;51.204;-4.130;2023-03-08T02:58:21;3.38;;;2.03;;
49764;SDS011;35657;51.204;-4.130;2023-03-08T03:00:47;3.35;;;2.00;;
49764;SDS011;35657;51.204;-4.130;2023-03-08T03:03:12;4.40;;;2.10;;
49764;SDS011;35657;51.204;-4.130;2023-03-08T03:05:41;3.95;;;2.28;;
49764;SDS011;35657;51.204;-4.130;2023-03-08T03:08:08;3.10;;;1.98;;
49764;SDS011;35657;51.204;-4.130;2023-03-08T03:10:35;3.55;;;2.35;;
49764;SDS011;35657;51.204;-4.130;2023-03-08T03:13:02;3.50;;;2.35;;
49764;SDS011;35657;51.204;-4.130;2023-03-08T03:15:28;2.85;;;2.10;;
49764;SDS011;35657;51.204;-4.130;2023-03-08T03:17:55;3.25;;;2.53;;
49764;SDS011;35657;51.204;-4.130;2023-03-08T03:20:20;3.83;;;2.17;;
49764;SDS011;35657;51.204;-4.130;2023-03-08T03:22:46;3.30;;;2.22;;
49764;SDS011;35657;51.204;-4.130;2023-03-08T03:25:12;3.67;;;2.55;;
49764;SDS011;35657;51.204;-4.130;2023-03-08T03:27:37;2.95;;;2.65;;
49764;SDS011;35657;51.204;-4.130;2023-03-08T03:30:04;5.28;;;3.08;;
49764;SDS011;35657;51.204;-4.130;2023-03-08T03:32:31;5.13;;;4.20;;
49764;SDS011;35657;51.204;-4.130;2023-03-08T03:34:57;5.53;;;3.80;;
49764;SDS011;35657;51.204;-4.130;2023-03-08T03:37:23;7.95;;;4.50;;
49764;SDS011;35657;51.204;-4.130;2023-03-08T03:39:48;5.60;;;4.50;;
49764;SDS011;35657;51.204;-4.130;2023-03-08T03:42:14;4.60;;;3.13;;
49764;SDS011;35657;51.204;-4.130;2023-03-08T03:44:40;4.63;;;3.97;;
49764;SDS011;35657;51.204;-4.130;2023-03-08T03:47:06;6.47;;;3.95;;
49764;SDS011;35657;51.204;-4.130;2023-03-08T03:49:32;6.38;;;4.03;;
49764;SDS011;35657;51.204;-4.130;2023-03-08T03:51:57;4.75;;;3.20;;
49764;SDS011;35657;51.204;-4.130;2023-03-08T03:54:23;7.93;;;5.72;;
49764;SDS011;35657;51.204;-4.130;2023-03-08T03:56:49;9.40;;;5.07;;
49764;SDS011;35657;51.204;-4.130;2023-03-08T03:59:15;12.27;;;5.88;;
49764;SDS011;35657;51.204;-4.130;2023-03-08T04:01:41;7.10;;;4.15;;
49764;SDS011;35657;51.204;-4.130;2023-03-08T04:04:08;5.88;;;4.03;;
49764;SDS011;35657;51.204;-4.130;2023-03-08T04:06:34;6.05;;;4.55;;
49764;SDS011;35657;51.204;-4.130;2023-03-08T04:09:01;6.90;;;3.95;;
49764;SDS011;35657;51.204;-4.130;2023-03-08T04:11:33;9.20;;;5.18;;
49764;SDS011;35657;51.204;-4.130;2023-03-08T04:14:00;11.57;;;4.38;;
49764;SDS011;35657;51.204;-4.130;2023-03-08T04:16:28;6.50;;;5.22;;
49764;SDS011;35657;51.204;-4.130;2023-03-08T04:18:56;8.57;;;5.85;;
49764;SDS011;35657;51.204;-4.130;2023-03-08T04:21:23;7.82;;;5.63;;
49764;SDS011;35657;51.204;-4.130;2023-03-08T04:23:49;11.50;;;5.78;;
49764;SDS011;35657;51.204;-4.130;2023-03-08T04:26:16;9.25;;;4.65;;
49764;SDS011;35657;51.204;-4.130;2023-03-08T04:28:42;7.47;;;4.70;;
49764;SDS011;35657;51.204;-4.130;2023-03-08T04:33:41;5.85;;;4.40;;
49764;SDS011;35657;51.204;-4.130;2023-03-08T04:36:06;5.22;;;3.30;;
49764;SDS011;35657;51.204;-4.130;2023-03-08T04:38:33;7.20;;;3.75;;
49764;SDS011;35657;51.204;-4.130;2023-03-08T04:40:59;7.53;;;3.88;;
49764;SDS011;35657;51.204;-4.130;2023-03-08T04:43:36;7.18;;;4.68;;
49764;SDS011;35657;51.204;-4.130;2023-03-08T04:46:09;10.52;;;6.75;;
49764;SDS011;35657;51.204;-4.130;2023-03-08T04:48:35;9.13;;;5.13;;
49764;SDS011;35657;51.204;-4.130;2023-03-08T04:51:02;9.93;;;5.78;;
49764;SDS011;35657;51.204;-4.130;2023-03-08T04:53:30;6.40;;;4.00;;
49764;SDS011;35657;51.204;-4.130;2023-03-08T04:55:56;9.75;;;7.47;;
49764;SDS011;35657;51.204;-4.130;2023-03-08T04:58:24;11.52;;;6.97;;
49764;SDS011;35657;51.204;-4.130;2023-03-08T05:00:50;10.57;;;6.82;;
49764;SDS011;35657;51.204;-4.130;2023-03-08T05:03:16;10.32;;;6.20;;
49764;SDS011;35657;51.204;-4.130;2023-03-08T05:05:46;10.10;;;6.75;;
49764;SDS011;35657;51.204;-4.130;2023-03-08T05:08:13;11.95;;;8.02;;
49764;SDS011;35657;51.204;-4.130;2023-03-08T05:10:39;9.15;;;7.30;;
49764;SDS011;35657;51.204;-4.130;2023-03-08T05:13:10;10.65;;;6.30;;
49764;SDS011;35657;51.204;-4.130;2023-03-08T05:15:36;13.98;;;6.43;;
49764;SDS011;35657;51.204;-4.130;2023-03-08T05:18:01;8.52;;;6.20;;
49764;SDS011;35657;51.204;-4.130;2023-03-08T05:20:27;10.70;;;5.45;;
49764;SDS011;35657;51.204;-4.130;2023-03-08T05:22:53;7.28;;;5.28;;
49764;SDS011;35657;51.204;-4.130;2023-03-08T05:25:18;8.70;;;5.20;;
49764;SDS011;35657;51.204;-4.130;2023-03-08T05:27:44;6.20;;;4.10;;
49764;SDS011;35657;51.204;-4.130;2023-03-08T05:30:10;12.00;;;4.55;;
49764;SDS011;35657;51.204;-4.130;2023-03-08T05:32:36;5.88;;;4.47;;
49764;SDS011;35657;51.204;-4.130;2023-03-08T05:35:02;7.28;;;5.15;;
49764;SDS011;35657;51.204;-4.130;2023-03-08T05:37:28;10.15;;;4.95;;
49764;SDS011;35657;51.204;-4.130;2023-03-08T05:39:53;6.43;;;3.28;;
49764;SDS011;35657;51.204;-4.130;2023-03-08T05:42:19;6.50;;;4.38;;
49764;SDS011;35657;51.204;-4.130;2023-03-08T05:44:45;5.68;;;3.97;;
49764;SDS011;35657;51.204;-4.130;2023-03-08T05:47:11;6.25;;;3.33;;
49764;SDS011;35657;51.204;-4.130;2023-03-08T05:49:36;6.30;;;4.00;;
49764;SDS011;35657;51.204;-4.130;2023-03-08T05:52:02;8.15;;;5.47;;
49764;SDS011;35657;51.204;-4.130;2023-03-08T05:54:28;10.88;;;4.78;;
49764;SDS011;35657;51.204;-4.130;2023-03-08T05:56:54;6.45;;;3.20;;
49764;SDS011;35657;51.204;-4.130;2023-03-08T05:59:20;6.57;;;4.00;;
49764;SDS011;35657;51.204;-4.130;2023-03-08T06:01:45;9.85;;;5.07;;
49764;SDS011;35657;51.204;-4.130;2023-03-08T06:04:11;7.80;;;4.75;;
49764;SDS011;35657;51.204;-4.130;2023-03-08T06:06:37;5.63;;;5.03;;
49764;SDS011;35657;51.204;-4.130;2023-03-08T06:09:02;6.85;;;4.72;;
49764;SDS011;35657;51.204;-4.130;2023-03-08T06:11:28;6.63;;;4.43;;
49764;SDS011;35657;51.204;-4.130;2023-03-08T06:13:54;7.65;;;5.10;;
49764;SDS011;35657;51.204;-4.130;2023-03-08T06:16:20;7.90;;;4.65;;
49764;SDS011;35657;51.204;-4.130;2023-03-08T06:18:45;6.47;;;3.60;;
49764;SDS011;35657;51.204;-4.130;2023-03-08T06:23:39;6.88;;;3.95;;
49764;SDS011;35657;51.204;-4.130;2023-03-08T06:26:05;5.68;;;3.90;;
49764;SDS011;35657;51.204;-4.130;2023-03-08T06:28:31;5.90;;;3.17;;
49764;SDS011;35657;51.204;-4.130;2023-03-08T06:30:57;4.57;;;2.97;;
49764;SDS011;35657;51.204;-4.130;2023-03-08T06:33:25;6.38;;;3.13;;
49764;SDS011;35657;51.204;-4.130;2023-03-08T06:38:38;4.38;;;2.78;;
49764;SDS011;35657;51.204;-4.130;2023-03-08T06:41:05;6.53;;;4.47;;
49764;SDS011;35657;51.204;-4.130;2023-03-08T06:43:32;5.45;;;3.45;;
49764;SDS011;35657;51.204;-4.130;2023-03-08T06:46:01;4.97;;;3.63;;
49764;SDS011;35657;51.204;-4.130;2023-03-08T06:48:28;5.70;;;3.60;;
49764;SDS011;35657;51.204;-4.130;2023-03-08T06:50:53;5.45;;;3.97;;
49764;SDS011;35657;51.204;-4.130;2023-03-08T06:53:19;7.72;;;4.50;;
49764;SDS011;35657;51.204;-4.130;2023-03-08T06:55:45;5.15;;;3.45;;
49764;SDS011;35657;51.204;-4.130;2023-03-08T06:58:10;5.70;;;3.40;;
49764;SDS011;35657;51.204;-4.130;2023-03-08T07:00:37;5.03;;;3.40;;
49764;SDS011;35657;51.204;-4.130;2023-03-08T07:03:03;4.63;;;2.70;;
49764;SDS011;35657;51.204;-4.130;2023-03-08T07:05:29;6.10;;;3.42;;
49764;SDS011;35657;51.204;-4.130;2023-03-08T07:07:55;5.18;;;3.00;;
49764;SDS011;35657;51.204;-4.130;2023-03-08T07:10:21;5.32;;;3.60;;
49764;SDS011;35657;51.204;-4.130;2023-03-08T07:12:47;4.65;;;3.30;;
49764;SDS011;35657;51.204;-4.130;2023-03-08T07:15:16;6.95;;;2.75;;
49764;SDS011;35657;51.204;-4.130;2023-03-08T07:17:45;4.97;;;2.40;;
49764;SDS011;35657;51.204;-4.130;2023-03-08T07:20:12;4.38;;;2.75;;
49764;SDS011;35657;51.204;-4.130;2023-03-08T07:22:42;4.32;;;2.92;;
49764;SDS011;35657;51.204;-4.130;2023-03-08T07:25:18;3.88;;;2.35;;
49764;SDS011;35657;51.204;-4.130;2023-03-08T07:27:45;4.47;;;2.22;;
49764;SDS011;35657;51.204;-4.130;2023-03-08T07:30:11;4.63;;;2.45;;
49764;SDS011;35657;51.204;-4.130;2023-03-08T07:32:38;5.05;;;3.08;;
49764;SDS011;35657;51.204;-4.130;2023-03-08T07:35:10;3.25;;;2.13;;
49764;SDS011;35657;51.204;-4.130;2023-03-08T07:37:37;4.70;;;2.55;;
49764;SDS011;35657;51.204;-4.130;2023-03-08T07:40:03;4.90;;;2.55;;
49764;SDS011;35657;51.204;-4.130;2023-03-08T07:42:30;3.63;;;2.58;;
49764;SDS011;35657;51.204;-4.130;2023-03-08T07:44:56;3.20;;;2.45;;
49764;SDS011;35657;51.204;-4.130;2023-03-08T07:47:21;2.90;;;1.40;;
49764;SDS011;35657;51.204;-4.130;2023-03-08T07:49:47;2.38;;;1.83;;
49764;SDS011;35657;51.204;-4.130;2023-03-08T07:52:13;2.42;;;1.80;;
49764;SDS011;35657;51.204;-4.130;2023-03-08T07:54:39;2.33;;;1.92;;
49764;SDS011;35657;51.204;-4.130;2023-03-08T07:57:05;2.35;;;1.95;;
49764;SDS011;35657;51.204;-4.130;2023-03-08T07:59:30;2.78;;;1.83;;
49764;SDS011;35657;51.204;-4.130;2023-03-08T08:01:56;2.15;;;1.60;;
49764;SDS011;35657;51.204;-4.130;2023-03-08T08:04:22;2.13;;;1.23;;
49764;SDS011;35657;51.204;-4.130;2023-03-08T08:06:48;1.80;;;1.17;;
49764;SDS011;35657;51.204;-4.130;2023-03-08T08:09:14;1.92;;;1.63;;
49764;SDS011;35657;51.204;-4.130;2023-03-08T08:11:41;1.75;;;1.40;;
49764;SDS011;35657;51.204;-4.130;2023-03-08T08:14:07;2.00;;;1.40;;
49764;SDS011;35657;51.204;-4.130;2023-03-08T08:16:33;2.25;;;1.80;;
49764;SDS011;35657;51.204;-4.130;2023-03-08T08:18:59;2.40;;;1.67;;
49764;SDS011;35657;51.204;-4.130;2023-03-08T08:21:24;2.15;;;1.30;;
49764;SDS011;35657;51.204;-4.130;2023-03-08T08:23:50;2.17;;;1.30;;
49764;SDS011;35657;51.204;-4.130;2023-03-08T08:26:18;2.28;;;1.45;;
49764;SDS011;35657;51.204;-4.130;2023-03-08T08:28:46;2.85;;;1.60;;
49764;SDS011;35657;51.204;-4.130;2023-03-08T08:31:17;2.25;;;1.33;;
49764;SDS011;35657;51.204;-4.130;2023-03-08T08:33:45;2.25;;;1.25;;
49764;SDS011;35657;51.204;-4.130;2023-03-08T08:36:12;2.72;;;1.63;;
49764;SDS011;35657;51.204;-4.130;2023-03-08T08:38:39;3.33;;;1.90;;
49764;SDS011;35657;51.204;-4.130;2023-03-08T08:41:07;2.20;;;1.70;;
49764;SDS011;35657;51.204;-4.130;2023-03-08T08:43:34;2.17;;;1.58;;
49764;SDS011;35657;51.204;-4.130;2023-03-08T08:46:01;2.30;;;1.50;;
49764;SDS011;35657;51.204;-4.130;2023-03-08T08:48:28;3.28;;;1.55;;
49764;SDS011;35657;51.204;-4.130;2023-03-08T08:50:53;1.65;;;1.30;;
49764;SDS011;35657;51.204;-4.130;2023-03-08T08:53:20;2.92;;;1.60;;
49764;SDS011;35657;51.204;-4.130;2023-03-08T08:55:46;2.28;;;1.55;;
49764;SDS011;35657;51.204;-4.130;2023-03-08T08:58:12;2.65;;;1.80;;
49764;SDS011;35657;51.204;-4.130;2023-03-08T09:00:38;2.15;;;1.40;;
49764;SDS011;35657;51.204;-4.130;2023-03-08T09:03:04;2.17;;;1.77;;
49764;SDS011;35657;51.204;-4.130;2023-03-08T09:05:31;3.63;;;1.92;;
49764;SDS011;35657;51.204;-4.130;2023-03-08T09:07:59;1.67;;;1.30;;
49764;SDS011;35657;51.204;-4.130;2023-03-08T09:10:26;2.20;;;1.83;;
49764;SDS011;35657;51.204;-4.130;2023-03-08T09:12:54;2.25;;;1.50;;
49764;SDS011;35657;51.204;-4.130;2023-03-08T09:15:20;1.52;;;1.23;;
49764;SDS011;35657;51.204;-4.130;2023-03-08T09:17:47;2.70;;;1.60;;
49764;SDS011;35657;51.204;-4.130;2023-03-08T09:20:13;2.28;;;1.90;;
49764;SDS011;35657;51.204;-4.130;2023-03-08T09:22:40;4.25;;;1.60;;
49764;SDS011;35657;51.204;-4.130;2023-03-08T09:25:06;3.08;;;1.58;;
49764;SDS011;35657;51.204;-4.130;2023-03-08T09:27:33;2.28;;;1.50;;
49764;SDS011;35657;51.204;-4.130;2023-03-08T09:29:59;2.22;;;1.85;;
49764;SDS011;35657;51.204;-4.130;2023-03-08T09:32:25;1.42;;;1.08;;
49764;SDS011;35657;51.204;-4.130;2023-03-08T09:34:51;3.85;;;1.60;;
49764;SDS011;35657;51.204;-4.130;2023-03-08T09:37:17;1.67;;;1.00;;
49764;SDS011;35657;51.204;-4.130;2023-03-08T09:39:43;1.45;;;1.15;;
49764;SDS011;35657;51.204;-4.130;2023-03-08T09:42:42;1.65;;;1.10;;
49764;SDS011;35657;51.204;-4.130;2023-03-08T09:50:42;1.40;;;0.93;;
49764;SDS011;35657;51.204;-4.130;2023-03-08T09:56:26;1.83;;;1.00;;
49764;SDS011;35657;51.204;-4.130;2023-03-08T10:01:25;1.10;;;0.77;;
49764;SDS011;35657;51.204;-4.130;2023-03-08T10:10:19;1.25;;;0.73;;
49764;SDS011;35657;51.204;-4.130;2023-03-08T10:15:51;2.88;;;0.90;;
49764;SDS011;35657;51.204;-4.130;2023-03-08T10:18:28;1.85;;;1.30;;
49764;SDS011;35657;51.204;-4.130;2023-03-08T10:20:59;1.27;;;1.00;;
49764;SDS011;35657;51.204;-4.130;2023-03-08T10:23:30;1.75;;;0.90;;
49764;SDS011;35657;51.204;-4.130;2023-03-08T10:25:59;1.50;;;0.93;;
49764;SDS011;35657;51.204;-4.130;2023-03-08T10:28:26;1.73;;;0.90;;
49764;SDS011;35657;51.204;-4.130;2023-03-08T10:30:53;1.33;;;0.82;;
49764;SDS011;35657;51.204;-4.130;2023-03-08T10:33:26;0.98;;;0.60;;
49764;SDS011;35657;51.204;-4.130;2023-03-08T10:35:58;1.98;;;0.70;;
49764;SDS011;35657;51.204;-4.130;2023-03-08T10:38:29;1.02;;;0.63;;
49764;SDS011;35657;51.204;-4.130;2023-03-08T10:41:18;4.22;;;1.50;;
49764;SDS011;35657;51.204;-4.130;2023-03-08T10:46:12;1.20;;;0.90;;
49764;SDS011;35657;51.204;-4.130;2023-03-08T10:48:43;1.83;;;0.77;;
49764;SDS011;35657;51.204;-4.130;2023-03-08T10:53:57;2.72;;;1.23;;
49764;SDS011;35657;51.204;-4.130;2023-03-08T10:56:32;2.30;;;1.40;;
49764;SDS011;35657;51.204;-4.130;2023-03-08T10:59:01;1.90;;;1.40;;
49764;SDS011;35657;51.204;-4.130;2023-03-08T11:04:11;1.10;;;0.90;;
49764;SDS011;35657;51.204;-4.130;2023-03-08T11:06:39;1.50;;;1.00;;
49764;SDS011;35657;51.204;-4.130;2023-03-08T11:11:54;1.17;;;0.77;;
49764;SDS011;35657;51.204;-4.130;2023-03-08T11:14:21;1.30;;;0.52;;
49764;SDS011;35657;51.204;-4.130;2023-03-08T11:27:35;0.90;;;0.70;;
49764;SDS011;35657;51.204;-4.130;2023-03-08T11:35:42;1.65;;;0.40;;
49764;SDS011;35657;51.204;-4.130;2023-03-08T11:38:29;5.20;;;1.98;;
49764;SDS011;35657;51.204;-4.130;2023-03-08T11:54:07;3.33;;;0.77;;
49764;SDS011;35657;51.204;-4.130;2023-03-08T11:57:01;2.05;;;0.50;;
49764;SDS011;35657;51.204;-4.130;2023-03-08T12:02:03;1.15;;;0.60;;
49764;SDS011;35657;51.204;-4.130;2023-03-08T12:07:14;5.28;;;1.00;;
49764;SDS011;35657;51.204;-4.130;2023-03-08T12:09:50;2.42;;;0.57;;
49764;SDS011;35657;51.204;-4.130;2023-03-08T12:12:36;1.30;;;0.75;;
49764;SDS011;35657;51.204;-4.130;2023-03-08T12:15:10;2.25;;;0.65;;
49764;SDS011;35657;51.204;-4.130;2023-03-08T12:17:53;1.50;;;0.77;;
49764;SDS011;35657;51.204;-4.130;2023-03-08T12:20:23;1.60;;;0.70;;
49764;SDS011;35657;51.204;-4.130;2023-03-08T12:25:36;3.65;;;0.73;;
49764;SDS011;35657;51.204;-4.130;2023-03-08T12:33:38;0.85;;;0.45;;
49764;SDS011;35657;51.204;-4.130;2023-03-08T12:36:04;0.98;;;0.70;;
49764;SDS011;35657;51.204;-4.130;2023-03-08T12:40:57;3.80;;;0.90;;
49764;SDS011;35657;51.204;-4.130;2023-03-08T12:53:42;2.85;;;0.80;;
49764;SDS011;35657;51.204;-4.130;2023-03-08T12:58:53;3.13;;;0.63;;
49764;SDS011;35657;51.204;-4.130;2023-03-08T13:01:32;1.00;;;0.77;;
49764;SDS011;35657;51.204;-4.130;2023-03-08T13:03:58;3.42;;;1.40;;
49764;SDS011;35657;51.204;-4.130;2023-03-08T13:11:46;4.20;;;1.52;;
49764;SDS011;35657;51.204;-4.130;2023-03-08T13:17:29;1.38;;;0.85;;
49764;SDS011;35657;51.204;-4.130;2023-03-08T13:19:55;2.60;;;1.50;;
49764;SDS011;35657;51.204;-4.130;2023-03-08T13:22:27;2.55;;;1.17;;
49764;SDS011;35657;51.204;-4.130;2023-03-08T13:30:28;4.22;;;0.77;;
49764;SDS011;35657;51.204;-4.130;2023-03-08T13:33:03;3.72;;;1.15;;
49764;SDS011;35657;51.204;-4.130;2023-03-08T13:35:37;2.67;;;1.10;;
49764;SDS011;35657;51.204;-4.130;2023-03-08T13:38:02;1.70;;;0.47;;
49764;SDS011;35657;51.204;-4.130;2023-03-08T13:40:28;1.55;;;0.80;;
49764;SDS011;35657;51.204;-4.130;2023-03-08T13:42:59;2.63;;;0.70;;
49764;SDS011;35657;51.204;-4.130;2023-03-08T13:45:32;1.50;;;0.75;;
49764;SDS011;35657;51.204;-4.130;2023-03-08T13:47:58;1.90;;;1.00;;
49764;SDS011;35657;51.204;-4.130;2023-03-08T13:50:32;1.33;;;0.68;;
49764;SDS011;35657;51.204;-4.130;2023-03-08T13:53:01;4.28;;;1.55;;
49764;SDS011;35657;51.204;-4.130;2023-03-08T13:55:37;1.98;;;1.35;;
49764;SDS011;35657;51.204;-4.130;2023-03-08T13:58:06;5.05;;;2.28;;
49764;SDS011;35657;51.204;-4.130;2023-03-08T14:00:55;4.53;;;1.60;;
49764;SDS011;35657;51.204;-4.130;2023-03-08T14:03:26;1.67;;;0.95;;
49764;SDS011;35657;51.204;-4.130;2023-03-08T14:05:53;1.50;;;0.60;;
49764;SDS011;35657;51.204;-4.130;2023-03-08T14:08:23;5.68;;;1.00;;
49764;SDS011;35657;51.204;-4.130;2023-03-08T14:15:55;1.48;;;0.70;;
49764;SDS011;35657;51.204;-4.130;2023-03-08T14:18:34;2.70;;;0.60;;
49764;SDS011;35657;51.204;-4.130;2023-03-08T14:24:00;1.05;;;0.70;;
49764;SDS011;35657;51.204;-4.130;2023-03-08T14:26:33;3.33;;;0.80;;
49764;SDS011;35657;51.204;-4.130;2023-03-08T14:29:08;4.68;;;0.75;;
49764;SDS011;35657;51.204;-4.130;2023-03-08T14:31:52;1.48;;;0.90;;
49764;SDS011;35657;51.204;-4.130;2023-03-08T14:34:21;1.30;;;0.50;;
49764;SDS011;35657;51.204;-4.130;2023-03-08T14:36:56;1.10;;;0.60;;
49764;SDS011;35657;51.204;-4.130;2023-03-08T14:39:24;1.75;;;0.60;;
49764;SDS011;35657;51.204;-4.130;2023-03-08T14:41:52;1.90;;;0.70;;
49764;SDS011;35657;51.204;-4.130;2023-03-08T14:44:21;1.55;;;1.00;;
49764;SDS011;35657;51.204;-4.130;2023-03-08T14:46:48;2.03;;;0.73;;
49764;SDS011;35657;51.204;-4.130;2023-03-08T14:49:24;3.28;;;1.15;;
49764;SDS011;35657;51.204;-4.130;2023-03-08T14:51:52;1.58;;;0.70;;
49764;SDS011;35657;51.204;-4.130;2023-03-08T14:57:18;0.95;;;0.50;;
49764;SDS011;35657;51.204;-4.130;2023-03-08T14:59:49;2.45;;;0.77;;
49764;SDS011;35657;51.204;-4.130;2023-03-08T15:02:16;1.80;;;0.50;;
49764;SDS011;35657;51.204;-4.130;2023-03-08T15:04:43;0.88;;;0.60;;
49764;SDS011;35657;51.204;-4.130;2023-03-08T15:07:17;1.55;;;0.77;;
49764;SDS011;35657;51.204;-4.130;2023-03-08T15:09:46;1.95;;;0.88;;
49764;SDS011;35657;51.204;-4.130;2023-03-08T15:12:13;2.67;;;0.88;;
49764;SDS011;35657;51.204;-4.130;2023-03-08T15:14:38;1.60;;;0.85;;
49764;SDS011;35657;51.204;-4.130;2023-03-08T15:17:04;3.85;;;0.70;;
49764;SDS011;35657;51.204;-4.130;2023-03-08T15:19:30;2.63;;;0.80;;
49764;SDS011;35657;51.204;-4.130;2023-03-08T15:21:56;5.32;;;0.90;;
49764;SDS011;35657;51.204;-4.130;2023-03-08T15:24:22;0.70;;;0.50;;
49764;SDS011;35657;51.204;-4.130;2023-03-08T15:26:48;1.65;;;1.13;;
49764;SDS011;35657;51.204;-4.130;2023-03-08T15:31:53;0.95;;;0.60;;
49764;SDS011;35657;51.204;-4.130;2023-03-08T15:34:20;4.93;;;0.90;;
49764;SDS011;35657;51.204;-4.130;2023-03-08T15:36:47;1.88;;;0.90;;
49764;SDS011;35657;51.204;-4.130;2023-03-08T15:39:13;1.63;;;0.80;;
49764;SDS011;35657;51.204;-4.130;2023-03-08T15:41:39;2.15;;;0.70;;
49764;SDS011;35657;51.204;-4.130;2023-03-08T15:44:05;1.10;;;0.70;;
49764;SDS011;35657;51.204;-4.130;2023-03-08T15:46:31;1.10;;;0.80;;
49764;SDS011;35657;51.204;-4.130;2023-03-08T15:48:58;1.15;;;0.70;;
49764;SDS011;35657;51.204;-4.130;2023-03-08T15:51:26;2.20;;;0.77;;
49764;SDS011;35657;51.204;-4.130;2023-03-08T15:53:55;1.42;;;0.70;;
49764;SDS011;35657;51.204;-4.130;2023-03-08T15:56:21;1.70;;;0.90;;
49764;SDS011;35657;51.204;-4.130;2023-03-08T15:58:47;1.35;;;0.88;;
49764;SDS011;35657;51.204;-4.130;2023-03-08T16:01:13;3.22;;;1.80;;
49764;SDS011;35657;51.204;-4.130;2023-03-08T16:03:39;2.00;;;1.48;;
49764;SDS011;35657;51.204;-4.130;2023-03-08T16:06:12;3.15;;;2.05;;
49764;SDS011;35657;51.204;-4.130;2023-03-08T16:08:39;1.30;;;1.13;;
49764;SDS011;35657;51.204;-4.130;2023-03-08T16:11:07;2.72;;;1.30;;
49764;SDS011;35657;51.204;-4.130;2023-03-08T16:13:33;1.40;;;1.10;;
49764;SDS011;35657;51.204;-4.130;2023-03-08T16:15:59;5.13;;;1.33;;
49764;SDS011;35657;51.204;-4.130;2023-03-08T16:18:27;2.72;;;1.38;;
49764;SDS011;35657;51.204;-4.130;2023-03-08T16:20:54;3.35;;;1.38;;
49764;SDS011;35657;51.204;-4.130;2023-03-08T16:23:20;2.30;;;1.70;;
49764;SDS011;35657;51.204;-4.130;2023-03-08T16:25:55;5.20;;;3.22;;
49764;SDS011;35657;51.204;-4.130;2023-03-08T16:28:25;2.28;;;1.77;;
49764;SDS011;35657;51.204;-4.130;2023-03-08T16:30:52;2.47;;;1.42;;
49764;SDS011;35657;51.204;-4.130;2023-03-08T16:33:18;2.90;;;1.50;;
49764;SDS011;35657;51.204;-4.130;2023-03-08T16:35:50;1.55;;;1.00;;
49764;SDS011;35657;51.204;-4.130;2023-03-08T16:38:16;1.63;;;1.08;;
49764;SDS011;35657;51.204;-4.130;2023-03-08T16:40:43;2.97;;;1.15;;
49764;SDS011;35657;51.204;-4.130;2023-03-08T16:43:08;2.05;;;1.05;;
49764;SDS011;35657;51.204;-4.130;2023-03-08T16:45:34;3.28;;;1.42;;
49764;SDS011;35657;51.204;-4.130;2023-03-08T16:48:01;1.50;;;1.20;;